sensor_id;sensor_type;location;lat;lon;timestamp;pressure;altitude;pressure_sealevel;temperature;humidity
53041;BME280;39326;42.650;23.248;2023-07-20T00:01:30;92354.97;;;22.33;49.65
53041;BME280;39326;42.650;23.248;2023-07-20T00:03:55;92347.22;;;22.40;49.38
53041;BME280;39326;42.650;23.248;2023-07-20T00:06:24;92352.00;;;22.46;49.92
53041;BME280;39326;42.650;23.248;2023-07-20T00:08:51;92339.28;;;22.52;49.46
53041;BME280;39326;42.650;23.248;2023-07-20T00:11:17;92327.00;;;22.41;49.64
53041;BME280;39326;42.650;23.248;2023-07-20T00:13:42;92328.88;;;22.50;49.00
53041;BME280;39326;42.650;23.248;2023-07-20T00:16:07;92329.50;;;22.54;48.26
53041;BME280;39326;42.650;23.248;2023-07-20T00:18:33;92325.69;;;22.52;48.29
53041;BME280;39326;42.650;23.248;2023-07-20T00:20:58;92331.28;;;22.57;47.82
53041;BME280;39326;42.650;23.248;2023-07-20T00:23:25;92346.84;;;22.57;48.13
53041;BME280;39326;42.650;23.248;2023-07-20T00:25:51;92367.22;;;22.52;48.72
53041;BME280;39326;42.650;23.248;2023-07-20T00:28:16;92371.34;;;22.48;49.77
53041;BME280;39326;42.650;23.248;2023-07-20T00:30:42;92371.38;;;22.38;50.19
53041;BME280;39326;42.650;23.248;2023-07-20T00:33:11;92363.81;;;22.42;50.79
53041;BME280;39326;42.650;23.248;2023-07-20T00:35:37;92369.84;;;22.47;50.30
53041;BME280;39326;42.650;23.248;2023-07-20T00:38:03;92360.91;;;22.46;50.50
53041;BME280;39326;42.650;23.248;2023-07-20T00:40:28;92359.41;;;22.45;51.07
53041;BME280;39326;42.650;23.248;2023-07-20T00:42:54;92362.31;;;22.41;51.23
53041;BME280;39326;42.650;23.248;2023-07-20T00:45:19;92354.44;;;22.43;51.50
53041;BME280;39326;42.650;23.248;2023-07-20T00:47:45;92343.66;;;22.34;51.64
53041;BME280;39326;42.650;23.248;2023-07-20T00:50:11;92342.59;;;22.32;51.27
53041;BME280;39326;42.650;23.248;2023-07-20T00:52:37;92340.63;;;22.32;51.42
53041;BME280;39326;42.650;23.248;2023-07-20T00:55:05;92333.28;;;22.24;51.39
53041;BME280;39326;42.650;23.248;2023-07-20T00:57:31;92331.47;;;22.21;52.28
53041;BME280;39326;42.650;23.248;2023-07-20T00:59:57;92348.00;;;22.08;53.21
53041;BME280;39326;42.650;23.248;2023-07-20T01:02:22;92344.72;;;22.04;53.14
53041;BME280;39326;42.650;23.248;2023-07-20T01:04:48;92338.22;;;22.01;52.67
53041;BME280;39326;42.650;23.248;2023-07-20T01:09:47;92334.63;;;21.95;52.96
53041;BME280;39326;42.650;23.248;2023-07-20T01:12:24;92339.09;;;21.83;53.61
53041;BME280;39326;42.650;23.248;2023-07-20T01:14:51;92337.31;;;21.71;53.88
53041;BME280;39326;42.650;23.248;2023-07-20T01:17:17;92330.81;;;21.69;53.92
53041;BME280;39326;42.650;23.248;2023-07-20T01:19:42;92334.88;;;21.64;54.00
53041;BME280;39326;42.650;23.248;2023-07-20T01:33:11;92339.53;;;21.30;55.84
53041;BME280;39326;42.650;23.248;2023-07-20T01:35:38;92350.22;;;21.25;56.04
53041;BME280;39326;42.650;23.248;2023-07-20T01:38:07;92357.00;;;21.20;56.36
53041;BME280;39326;42.650;23.248;2023-07-20T01:40:33;92357.66;;;21.15;56.69
53041;BME280;39326;42.650;23.248;2023-07-20T01:42:59;92345.44;;;21.11;56.57
53041;BME280;39326;42.650;23.248;2023-07-20T01:45:24;92336.28;;;21.08;56.93
53041;BME280;39326;42.650;23.248;2023-07-20T01:47:50;92322.97;;;21.01;57.36
53041;BME280;39326;42.650;23.248;2023-07-20T01:50:15;92315.00;;;20.97;57.67
53041;BME280;39326;42.650;23.248;2023-07-20T01:52:40;92313.81;;;20.89;58.02
53041;BME280;39326;42.650;23.248;2023-07-20T01:55:06;92320.13;;;20.86;58.26
53041;BME280;39326;42.650;23.248;2023-07-20T01:57:32;92319.38;;;20.86;58.46
53041;BME280;39326;42.650;23.248;2023-07-20T01:59:57;92323.91;;;20.79;58.72
53041;BME280;39326;42.650;23.248;2023-07-20T02:02:26;92317.13;;;20.75;58.42
53041;BME280;39326;42.650;23.248;2023-07-20T02:04:51;92313.97;;;20.67;58.66
53041;BME280;39326;42.650;23.248;2023-07-20T02:07:16;92312.19;;;20.64;59.04
53041;BME280;39326;42.650;23.248;2023-07-20T02:09:42;92320.16;;;20.59;59.82
53041;BME280;39326;42.650;23.248;2023-07-20T02:12:08;92319.69;;;20.51;59.84
53041;BME280;39326;42.650;23.248;2023-07-20T02:14:33;92320.31;;;20.46;60.05
53041;BME280;39326;42.650;23.248;2023-07-20T02:16:58;92308.09;;;20.41;60.38
53041;BME280;39326;42.650;23.248;2023-07-20T02:19:25;92314.88;;;20.37;60.49
53041;BME280;39326;42.650;23.248;2023-07-20T02:21:51;92315.78;;;20.34;61.46
53041;BME280;39326;42.650;23.248;2023-07-20T02:24:17;92319.06;;;20.28;61.76
53041;BME280;39326;42.650;23.248;2023-07-20T02:26:42;92320.69;;;20.26;61.63
53041;BME280;39326;42.650;23.248;2023-07-20T02:29:09;92316.47;;;20.25;61.35
53041;BME280;39326;42.650;23.248;2023-07-20T02:31:37;92322.81;;;20.22;62.11
53041;BME280;39326;42.650;23.248;2023-07-20T02:34:02;92314.50;;;20.16;62.44
53041;BME280;39326;42.650;23.248;2023-07-20T02:36:28;92311.47;;;20.05;62.92
53041;BME280;39326;42.650;23.248;2023-07-20T02:38:53;92314.34;;;20.01;63.14
53041;BME280;39326;42.650;23.248;2023-07-20T02:41:19;92303.94;;;20.00;63.48
53041;BME280;39326;42.650;23.248;2023-07-20T02:43:45;92298.97;;;19.98;63.92
53041;BME280;39326;42.650;23.248;2023-07-20T02:46:10;92297.44;;;19.88;64.41
53041;BME280;39326;42.650;23.248;2023-07-20T02:48:36;92291.13;;;19.82;64.62
53041;BME280;39326;42.650;23.248;2023-07-20T02:51:01;92281.81;;;19.83;64.92
53041;BME280;39326;42.650;23.248;2023-07-20T02:53:27;92278.50;;;19.79;64.72
53041;BME280;39326;42.650;23.248;2023-07-20T02:55:52;92279.66;;;19.69;65.26
53041;BME280;39326;42.650;23.248;2023-07-20T02:58:17;92285.94;;;19.57;65.22
53041;BME280;39326;42.650;23.248;2023-07-20T03:00:43;92290.91;;;19.58;64.75
53041;BME280;39326;42.650;23.248;2023-07-20T03:03:09;92294.19;;;19.53;64.30
53041;BME280;39326;42.650;23.248;2023-07-20T03:05:35;92293.75;;;19.55;64.70
53041;BME280;39326;42.650;23.248;2023-07-20T03:08:03;92289.91;;;19.43;65.28
53041;BME280;39326;42.650;23.248;2023-07-20T03:10:29;92281.06;;;19.42;64.49
53041;BME280;39326;42.650;23.248;2023-07-20T03:12:54;92288.41;;;19.42;64.62
53041;BME280;39326;42.650;23.248;2023-07-20T03:15:19;92300.25;;;19.35;65.34
53041;BME280;39326;42.650;23.248;2023-07-20T03:17:45;92302.13;;;19.16;66.36
53041;BME280;39326;42.650;23.248;2023-07-20T03:20:11;92307.56;;;19.26;64.91
53041;BME280;39326;42.650;23.248;2023-07-20T03:22:38;92308.66;;;19.28;64.88
53041;BME280;39326;42.650;23.248;2023-07-20T03:25:03;92306.81;;;19.25;65.01
53041;BME280;39326;42.650;23.248;2023-07-20T03:27:29;92307.13;;;19.27;65.57
53041;BME280;39326;42.650;23.248;2023-07-20T03:29:55;92315.25;;;19.27;66.13
53041;BME280;39326;42.650;23.248;2023-07-20T03:32:20;92315.09;;;19.31;65.13
53041;BME280;39326;42.650;23.248;2023-07-20T03:34:46;92301.59;;;19.31;64.92
53041;BME280;39326;42.650;23.248;2023-07-20T03:37:13;92314.53;;;19.36;63.97
53041;BME280;39326;42.650;23.248;2023-07-20T03:39:38;92311.06;;;19.35;64.09
53041;BME280;39326;42.650;23.248;2023-07-20T03:42:04;92314.09;;;19.37;64.30
53041;BME280;39326;42.650;23.248;2023-07-20T03:44:30;92301.00;;;19.36;64.53
53041;BME280;39326;42.650;23.248;2023-07-20T03:46:56;92303.44;;;19.43;64.14
53041;BME280;39326;42.650;23.248;2023-07-20T03:49:21;92307.66;;;19.44;64.53
53041;BME280;39326;42.650;23.248;2023-07-20T03:51:46;92314.47;;;19.48;65.08
53041;BME280;39326;42.650;23.248;2023-07-20T03:54:12;92319.44;;;19.50;65.37
53041;BME280;39326;42.650;23.248;2023-07-20T03:56:37;92320.06;;;19.54;65.46
53041;BME280;39326;42.650;23.248;2023-07-20T03:59:03;92325.34;;;19.58;65.92
53041;BME280;39326;42.650;23.248;2023-07-20T04:01:28;92320.84;;;19.64;65.56
53041;BME280;39326;42.650;23.248;2023-07-20T04:03:54;92314.25;;;19.65;66.30
53041;BME280;39326;42.650;23.248;2023-07-20T04:06:20;92310.50;;;19.71;66.77
53041;BME280;39326;42.650;23.248;2023-07-20T04:08:46;92298.34;;;19.76;66.55
53041;BME280;39326;42.650;23.248;2023-07-20T04:11:12;92299.69;;;19.81;67.22
53041;BME280;39326;42.650;23.248;2023-07-20T04:13:38;92290.38;;;19.82;67.75
53041;BME280;39326;42.650;23.248;2023-07-20T04:16:03;92296.41;;;19.86;67.66
53041;BME280;39326;42.650;23.248;2023-07-20T04:18:29;92290.41;;;19.91;67.44
53041;BME280;39326;42.650;23.248;2023-07-20T04:20:54;92289.81;;;19.96;67.68
53041;BME280;39326;42.650;23.248;2023-07-20T04:23:20;92293.88;;;20.00;68.04
53041;BME280;39326;42.650;23.248;2023-07-20T04:25:45;92291.31;;;20.06;68.82
53041;BME280;39326;42.650;23.248;2023-07-20T04:28:11;92288.31;;;20.04;69.20
53041;BME280;39326;42.650;23.248;2023-07-20T04:30:36;92291.03;;;20.04;68.79
53041;BME280;39326;42.650;23.248;2023-07-20T04:33:03;92289.53;;;20.12;68.68
53041;BME280;39326;42.650;23.248;2023-07-20T04:35:48;92290.16;;;20.16;69.33
53041;BME280;39326;42.650;23.248;2023-07-20T04:38:14;92285.78;;;20.10;68.79
53041;BME280;39326;42.650;23.248;2023-07-20T04:40:47;92296.19;;;20.20;68.01
53041;BME280;39326;42.650;23.248;2023-07-20T04:43:16;92280.06;;;20.26;67.56
53041;BME280;39326;42.650;23.248;2023-07-20T04:45:42;92284.03;;;20.34;67.98
53041;BME280;39326;42.650;23.248;2023-07-20T04:48:12;92284.47;;;20.33;68.97
53041;BME280;39326;42.650;23.248;2023-07-20T04:50:40;92285.38;;;20.30;68.94
53041;BME280;39326;42.650;23.248;2023-07-20T04:53:05;92296.31;;;20.26;68.92
53041;BME280;39326;42.650;23.248;2023-07-20T04:55:31;92293.06;;;20.40;68.86
53041;BME280;39326;42.650;23.248;2023-07-20T04:57:59;92285.06;;;20.55;67.42
53041;BME280;39326;42.650;23.248;2023-07-20T05:00:25;92285.81;;;20.37;68.14
53041;BME280;39326;42.650;23.248;2023-07-20T05:02:50;92295.13;;;20.64;67.42
53041;BME280;39326;42.650;23.248;2023-07-20T05:05:16;92282.38;;;20.64;67.47
53041;BME280;39326;42.650;23.248;2023-07-20T05:07:41;92280.84;;;20.72;67.35
53041;BME280;39326;42.650;23.248;2023-07-20T05:10:07;92277.50;;;20.87;67.20
53041;BME280;39326;42.650;23.248;2023-07-20T05:12:32;92287.72;;;21.01;66.68
53041;BME280;39326;42.650;23.248;2023-07-20T05:14:58;92294.19;;;21.13;66.71
53041;BME280;39326;42.650;23.248;2023-07-20T05:17:23;92295.41;;;21.12;67.14
53041;BME280;39326;42.650;23.248;2023-07-20T05:19:50;92295.22;;;21.24;66.58
53041;BME280;39326;42.650;23.248;2023-07-20T05:22:16;92295.09;;;21.19;67.51
53041;BME280;39326;42.650;23.248;2023-07-20T05:24:41;92298.38;;;21.32;67.04
53041;BME280;39326;42.650;23.248;2023-07-20T05:27:07;92302.44;;;21.37;67.00
53041;BME280;39326;42.650;23.248;2023-07-20T05:29:32;92310.09;;;21.47;66.88
53041;BME280;39326;42.650;23.248;2023-07-20T05:31:58;92309.22;;;21.32;67.34
53041;BME280;39326;42.650;23.248;2023-07-20T05:34:23;92313.47;;;21.24;67.38
53041;BME280;39326;42.650;23.248;2023-07-20T05:36:49;92316.88;;;21.43;66.18
53041;BME280;39326;42.650;23.248;2023-07-20T05:39:17;92308.88;;;21.39;66.82
53041;BME280;39326;42.650;23.248;2023-07-20T05:41:42;92312.53;;;21.36;67.29
53041;BME280;39326;42.650;23.248;2023-07-20T05:44:08;92327.13;;;21.48;66.93
53041;BME280;39326;42.650;23.248;2023-07-20T05:46:33;92324.50;;;21.62;65.91
53041;BME280;39326;42.650;23.248;2023-07-20T05:48:58;92320.91;;;21.56;66.08
53041;BME280;39326;42.650;23.248;2023-07-20T05:51:24;92338.19;;;21.77;65.74
53041;BME280;39326;42.650;23.248;2023-07-20T05:53:49;92339.31;;;21.95;64.88
53041;BME280;39326;42.650;23.248;2023-07-20T05:56:15;92327.78;;;22.09;64.10
53041;BME280;39326;42.650;23.248;2023-07-20T05:58:40;92320.97;;;22.13;64.16
53041;BME280;39326;42.650;23.248;2023-07-20T06:01:06;92316.78;;;22.27;63.67
53041;BME280;39326;42.650;23.248;2023-07-20T06:03:32;92324.06;;;22.45;62.52
53041;BME280;39326;42.650;23.248;2023-07-20T06:06:01;92324.50;;;22.53;61.92
53041;BME280;39326;42.650;23.248;2023-07-20T06:08:30;92325.69;;;22.52;61.92
53041;BME280;39326;42.650;23.248;2023-07-20T06:10:55;92330.81;;;22.35;62.96
53041;BME280;39326;42.650;23.248;2023-07-20T06:13:21;92323.44;;;22.26;63.31
53041;BME280;39326;42.650;23.248;2023-07-20T06:15:46;92325.72;;;22.28;62.92
53041;BME280;39326;42.650;23.248;2023-07-20T06:18:13;92321.34;;;22.54;62.21
53041;BME280;39326;42.650;23.248;2023-07-20T06:20:38;92311.53;;;22.48;61.78
53041;BME280;39326;42.650;23.248;2023-07-20T06:23:04;92311.03;;;22.58;62.47
53041;BME280;39326;42.650;23.248;2023-07-20T06:25:29;92301.81;;;22.80;61.53
53041;BME280;39326;42.650;23.248;2023-07-20T06:27:55;92309.63;;;22.63;61.90
53041;BME280;39326;42.650;23.248;2023-07-20T06:30:21;92303.50;;;22.92;60.76
53041;BME280;39326;42.650;23.248;2023-07-20T06:32:47;92309.81;;;23.13;60.49
53041;BME280;39326;42.650;23.248;2023-07-20T06:35:13;92303.47;;;23.31;59.54
53041;BME280;39326;42.650;23.248;2023-07-20T06:37:38;92298.28;;;23.47;59.13
53041;BME280;39326;42.650;23.248;2023-07-20T06:40:04;92296.31;;;23.48;59.02
53041;BME280;39326;42.650;23.248;2023-07-20T06:42:30;92292.09;;;23.47;58.41
53041;BME280;39326;42.650;23.248;2023-07-20T06:44:57;92295.53;;;23.62;59.02
53041;BME280;39326;42.650;23.248;2023-07-20T06:47:22;92300.28;;;23.82;58.82
53041;BME280;39326;42.650;23.248;2023-07-20T06:49:48;92286.66;;;23.82;57.75
53041;BME280;39326;42.650;23.248;2023-07-20T06:52:13;92289.00;;;24.04;57.02
53041;BME280;39326;42.650;23.248;2023-07-20T06:54:38;92303.38;;;24.25;56.68
53041;BME280;39326;42.650;23.248;2023-07-20T06:57:04;92316.34;;;24.50;56.28
53041;BME280;39326;42.650;23.248;2023-07-20T06:59:30;92317.34;;;24.53;56.03
53041;BME280;39326;42.650;23.248;2023-07-20T07:01:55;92324.06;;;24.72;56.48
53041;BME280;39326;42.650;23.248;2023-07-20T07:04:21;92333.78;;;24.59;55.56
53041;BME280;39326;42.650;23.248;2023-07-20T07:06:46;92326.84;;;24.58;56.39
53041;BME280;39326;42.650;23.248;2023-07-20T07:09:12;92341.81;;;24.47;56.30
53041;BME280;39326;42.650;23.248;2023-07-20T07:11:37;92342.34;;;24.66;54.89
53041;BME280;39326;42.650;23.248;2023-07-20T07:14:03;92347.88;;;24.92;54.52
53041;BME280;39326;42.650;23.248;2023-07-20T07:16:28;92361.50;;;24.92;52.86
53041;BME280;39326;42.650;23.248;2023-07-20T07:18:53;92370.09;;;25.05;52.80
53041;BME280;39326;42.650;23.248;2023-07-20T07:21:19;92370.56;;;24.83;53.08
53041;BME280;39326;42.650;23.248;2023-07-20T07:23:45;92370.59;;;25.09;53.34
53041;BME280;39326;42.650;23.248;2023-07-20T07:26:11;92380.25;;;25.25;53.71
53041;BME280;39326;42.650;23.248;2023-07-20T07:28:37;92377.41;;;25.40;53.75
53041;BME280;39326;42.650;23.248;2023-07-20T07:31:05;92387.00;;;25.56;54.16
53041;BME280;39326;42.650;23.248;2023-07-20T07:33:31;92373.97;;;25.71;54.46
53041;BME280;39326;42.650;23.248;2023-07-20T07:35:57;92370.59;;;25.82;54.19
53041;BME280;39326;42.650;23.248;2023-07-20T07:38:23;92357.50;;;25.92;54.18
53041;BME280;39326;42.650;23.248;2023-07-20T07:40:48;92357.31;;;25.95;54.63
53041;BME280;39326;42.650;23.248;2023-07-20T07:43:13;92363.38;;;26.10;53.98
53041;BME280;39326;42.650;23.248;2023-07-20T07:45:40;92348.31;;;26.26;54.03
53041;BME280;39326;42.650;23.248;2023-07-20T07:48:06;92331.41;;;26.28;54.34
53041;BME280;39326;42.650;23.248;2023-07-20T07:50:32;92323.41;;;26.19;54.75
53041;BME280;39326;42.650;23.248;2023-07-20T07:52:58;92321.16;;;26.17;54.62
53041;BME280;39326;42.650;23.248;2023-07-20T07:55:25;92339.56;;;26.22;53.45
53041;BME280;39326;42.650;23.248;2023-07-20T07:57:52;92326.97;;;26.30;54.61
53041;BME280;39326;42.650;23.248;2023-07-20T08:00:17;92324.41;;;26.64;53.54
53041;BME280;39326;42.650;23.248;2023-07-20T08:02:44;92329.22;;;26.80;53.37
53041;BME280;39326;42.650;23.248;2023-07-20T08:05:10;92351.53;;;26.62;53.95
53041;BME280;39326;42.650;23.248;2023-07-20T08:07:38;92368.16;;;26.58;52.26
53041;BME280;39326;42.650;23.248;2023-07-20T08:10:04;92385.34;;;26.64;53.13
53041;BME280;39326;42.650;23.248;2023-07-20T08:12:30;92393.78;;;26.55;52.23
53041;BME280;39326;42.650;23.248;2023-07-20T08:14:56;92392.69;;;26.47;52.99
53041;BME280;39326;42.650;23.248;2023-07-20T08:17:21;92384.44;;;26.41;53.60
53041;BME280;39326;42.650;23.248;2023-07-20T08:19:47;92388.66;;;26.37;52.70
53041;BME280;39326;42.650;23.248;2023-07-20T08:22:12;92406.41;;;26.15;52.40
53041;BME280;39326;42.650;23.248;2023-07-20T08:24:41;92396.03;;;26.25;51.49
53041;BME280;39326;42.650;23.248;2023-07-20T08:27:07;92388.88;;;25.96;50.17
53041;BME280;39326;42.650;23.248;2023-07-20T08:29:36;92383.75;;;26.09;50.76
53041;BME280;39326;42.650;23.248;2023-07-20T08:32:03;92403.91;;;26.12;50.71
53041;BME280;39326;42.650;23.248;2023-07-20T08:34:29;92401.50;;;26.25;50.22
53041;BME280;39326;42.650;23.248;2023-07-20T08:36:55;92405.31;;;26.39;49.48
53041;BME280;39326;42.650;23.248;2023-07-20T08:39:21;92400.16;;;26.47;48.10
53041;BME280;39326;42.650;23.248;2023-07-20T08:41:48;92410.72;;;26.65;46.96
53041;BME280;39326;42.650;23.248;2023-07-20T08:44:13;92399.53;;;26.26;46.90
53041;BME280;39326;42.650;23.248;2023-07-20T08:46:40;92395.34;;;26.30;46.09
53041;BME280;39326;42.650;23.248;2023-07-20T08:49:06;92405.38;;;26.45;45.69
53041;BME280;39326;42.650;23.248;2023-07-20T08:51:32;92395.28;;;26.56;44.76
53041;BME280;39326;42.650;23.248;2023-07-20T08:53:59;92392.78;;;26.58;44.28
53041;BME280;39326;42.650;23.248;2023-07-20T08:56:25;92394.38;;;26.76;44.15
53041;BME280;39326;42.650;23.248;2023-07-20T08:58:54;92390.94;;;26.87;43.18
53041;BME280;39326;42.650;23.248;2023-07-20T09:01:21;92383.22;;;26.91;44.32
53041;BME280;39326;42.650;23.248;2023-07-20T09:03:48;92392.78;;;27.07;44.27
53041;BME280;39326;42.650;23.248;2023-07-20T09:06:14;92374.69;;;27.32;44.27
53041;BME280;39326;42.650;23.248;2023-07-20T09:08:40;92387.16;;;27.33;43.56
53041;BME280;39326;42.650;23.248;2023-07-20T09:11:06;92376.63;;;27.14;42.97
53041;BME280;39326;42.650;23.248;2023-07-20T09:13:33;92380.63;;;27.19;42.50
53041;BME280;39326;42.650;23.248;2023-07-20T09:15:59;92382.41;;;27.33;42.93
53041;BME280;39326;42.650;23.248;2023-07-20T09:18:26;92383.94;;;27.51;42.16
53041;BME280;39326;42.650;23.248;2023-07-20T09:20:53;92364.78;;;27.51;41.11
53041;BME280;39326;42.650;23.248;2023-07-20T09:23:19;92371.22;;;27.42;41.01
53041;BME280;39326;42.650;23.248;2023-07-20T09:25:47;92373.94;;;27.42;41.28
53041;BME280;39326;42.650;23.248;2023-07-20T09:28:15;92378.19;;;27.38;41.92
53041;BME280;39326;42.650;23.248;2023-07-20T09:30:41;92366.50;;;27.37;41.23
53041;BME280;39326;42.650;23.248;2023-07-20T09:33:18;92379.44;;;27.48;40.39
53041;BME280;39326;42.650;23.248;2023-07-20T09:35:43;92376.78;;;27.76;40.61
53041;BME280;39326;42.650;23.248;2023-07-20T09:38:09;92370.31;;;28.01;40.44
53041;BME280;39326;42.650;23.248;2023-07-20T09:40:37;92373.28;;;28.15;40.04
53041;BME280;39326;42.650;23.248;2023-07-20T09:43:07;92365.31;;;28.34;39.30
53041;BME280;39326;42.650;23.248;2023-07-20T09:45:40;92372.78;;;28.27;39.76
53041;BME280;39326;42.650;23.248;2023-07-20T09:48:07;92367.03;;;28.42;40.05
53041;BME280;39326;42.650;23.248;2023-07-20T09:50:34;92362.50;;;28.62;40.33
53041;BME280;39326;42.650;23.248;2023-07-20T09:53:04;92345.41;;;29.02;40.27
53041;BME280;39326;42.650;23.248;2023-07-20T09:55:31;92339.69;;;29.00;40.02
53041;BME280;39326;42.650;23.248;2023-07-20T09:57:59;92324.28;;;28.75;39.57
53041;BME280;39326;42.650;23.248;2023-07-20T10:00:25;92325.84;;;28.59;38.38
53041;BME280;39326;42.650;23.248;2023-07-20T10:02:51;92321.88;;;28.43;39.70
53041;BME280;39326;42.650;23.248;2023-07-20T10:05:17;92323.63;;;28.24;39.92
53041;BME280;39326;42.650;23.248;2023-07-20T10:07:47;92327.41;;;28.21;40.03
53041;BME280;39326;42.650;23.248;2023-07-20T10:10:14;92334.66;;;28.13;39.88
53041;BME280;39326;42.650;23.248;2023-07-20T10:12:42;92342.38;;;27.97;39.61
53041;BME280;39326;42.650;23.248;2023-07-20T10:15:12;92343.88;;;27.93;40.70
53041;BME280;39326;42.650;23.248;2023-07-20T10:17:46;92345.13;;;27.86;39.38
53041;BME280;39326;42.650;23.248;2023-07-20T10:20:16;92347.34;;;27.71;40.52
53041;BME280;39326;42.650;23.248;2023-07-20T10:22:47;92353.06;;;27.67;40.26
53041;BME280;39326;42.650;23.248;2023-07-20T10:25:15;92359.28;;;27.68;41.55
53041;BME280;39326;42.650;23.248;2023-07-20T10:27:41;92347.88;;;27.75;40.12
53041;BME280;39326;42.650;23.248;2023-07-20T10:30:07;92341.59;;;27.58;39.94
53041;BME280;39326;42.650;23.248;2023-07-20T10:32:33;92334.38;;;27.55;39.54
53041;BME280;39326;42.650;23.248;2023-07-20T10:34:59;92327.94;;;27.74;40.02
53041;BME280;39326;42.650;23.248;2023-07-20T10:42:50;92293.03;;;27.47;40.66
53041;BME280;39326;42.650;23.248;2023-07-20T10:45:17;92256.38;;;27.67;41.01
53041;BME280;39326;42.650;23.248;2023-07-20T10:47:46;92235.50;;;27.75;41.97
53041;BME280;39326;42.650;23.248;2023-07-20T10:50:12;92265.63;;;27.69;42.04
53041;BME280;39326;42.650;23.248;2023-07-20T10:52:39;92271.59;;;27.57;42.39
53041;BME280;39326;42.650;23.248;2023-07-20T10:55:14;92273.09;;;27.69;42.47
53041;BME280;39326;42.650;23.248;2023-07-20T10:57:40;92259.16;;;27.72;42.71
53041;BME280;39326;42.650;23.248;2023-07-20T11:00:13;92242.97;;;27.74;42.37
53041;BME280;39326;42.650;23.248;2023-07-20T11:02:47;92251.66;;;27.90;42.35
53041;BME280;39326;42.650;23.248;2023-07-20T11:05:32;92243.41;;;28.12;43.06
53041;BME280;39326;42.650;23.248;2023-07-20T11:07:59;92242.34;;;28.26;43.20
53041;BME280;39326;42.650;23.248;2023-07-20T11:10:25;92244.56;;;28.45;42.13
53041;BME280;39326;42.650;23.248;2023-07-20T11:13:19;92251.16;;;28.72;40.95
53041;BME280;39326;42.650;23.248;2023-07-20T11:16:04;92249.31;;;28.97;39.14
53041;BME280;39326;42.650;23.248;2023-07-20T11:18:30;92250.41;;;29.18;40.30
53041;BME280;39326;42.650;23.248;2023-07-20T11:20:58;92253.75;;;29.47;39.79
53041;BME280;39326;42.650;23.248;2023-07-20T11:23:23;92247.47;;;29.82;39.85
53041;BME280;39326;42.650;23.248;2023-07-20T11:25:49;92226.84;;;30.19;39.60
53041;BME280;39326;42.650;23.248;2023-07-20T11:28:15;92245.41;;;30.12;38.56
53041;BME280;39326;42.650;23.248;2023-07-20T11:30:41;92243.66;;;30.15;38.31
53041;BME280;39326;42.650;23.248;2023-07-20T11:33:09;92247.47;;;30.06;38.09
53041;BME280;39326;42.650;23.248;2023-07-20T11:35:36;92230.91;;;30.12;37.86
53041;BME280;39326;42.650;23.248;2023-07-20T11:38:07;92230.25;;;30.49;37.92
53041;BME280;39326;42.650;23.248;2023-07-20T11:40:32;92231.84;;;30.63;39.33
53041;BME280;39326;42.650;23.248;2023-07-20T11:42:58;92227.09;;;30.64;37.25
53041;BME280;39326;42.650;23.248;2023-07-20T11:45:23;92221.44;;;30.94;36.30
53041;BME280;39326;42.650;23.248;2023-07-20T11:47:50;92223.81;;;31.22;35.27
53041;BME280;39326;42.650;23.248;2023-07-20T11:50:15;92224.50;;;31.60;35.91
53041;BME280;39326;42.650;23.248;2023-07-20T11:52:41;92221.00;;;31.60;34.71
53041;BME280;39326;42.650;23.248;2023-07-20T11:55:07;92216.50;;;31.57;34.19
53041;BME280;39326;42.650;23.248;2023-07-20T11:57:33;92217.75;;;31.88;34.42
53041;BME280;39326;42.650;23.248;2023-07-20T12:00:02;92204.97;;;32.17;33.96
53041;BME280;39326;42.650;23.248;2023-07-20T12:02:31;92201.91;;;32.34;32.77
53041;BME280;39326;42.650;23.248;2023-07-20T12:04:57;92211.66;;;32.35;33.81
53041;BME280;39326;42.650;23.248;2023-07-20T12:07:25;92206.44;;;32.31;32.74
53041;BME280;39326;42.650;23.248;2023-07-20T12:10:07;92199.31;;;32.62;31.93
53041;BME280;39326;42.650;23.248;2023-07-20T12:12:40;92197.00;;;32.66;32.70
53041;BME280;39326;42.650;23.248;2023-07-20T12:15:22;92189.63;;;32.69;30.33
53041;BME280;39326;42.650;23.248;2023-07-20T12:17:52;92193.09;;;32.83;30.47
53041;BME280;39326;42.650;23.248;2023-07-20T12:20:29;92185.81;;;33.06;31.59
53041;BME280;39326;42.650;23.248;2023-07-20T12:23:02;92195.81;;;33.09;30.52
53041;BME280;39326;42.650;23.248;2023-07-20T12:25:44;92194.69;;;32.91;29.78
53041;BME280;39326;42.650;23.248;2023-07-20T12:28:14;92194.78;;;32.99;29.77
53041;BME280;39326;42.650;23.248;2023-07-20T12:30:41;92184.94;;;33.11;30.28
53041;BME280;39326;42.650;23.248;2023-07-20T12:33:07;92189.50;;;33.22;28.56
53041;BME280;39326;42.650;23.248;2023-07-20T12:35:33;92188.78;;;33.08;28.91
53041;BME280;39326;42.650;23.248;2023-07-20T12:37:58;92188.56;;;33.06;29.64
53041;BME280;39326;42.650;23.248;2023-07-20T12:40:24;92180.25;;;33.19;29.07
53041;BME280;39326;42.650;23.248;2023-07-20T12:42:50;92181.22;;;33.43;29.87
53041;BME280;39326;42.650;23.248;2023-07-20T12:45:15;92181.97;;;33.22;28.26
53041;BME280;39326;42.650;23.248;2023-07-20T12:47:41;92182.72;;;32.75;27.44
53041;BME280;39326;42.650;23.248;2023-07-20T12:50:08;92177.31;;;32.57;28.09
53041;BME280;39326;42.650;23.248;2023-07-20T12:52:37;92184.06;;;32.82;27.57
53041;BME280;39326;42.650;23.248;2023-07-20T12:55:07;92176.47;;;32.96;27.91
53041;BME280;39326;42.650;23.248;2023-07-20T12:57:37;92173.75;;;32.83;27.52
53041;BME280;39326;42.650;23.248;2023-07-20T13:00:03;92180.47;;;32.87;27.43
53041;BME280;39326;42.650;23.248;2023-07-20T13:02:30;92181.06;;;32.93;27.42
53041;BME280;39326;42.650;23.248;2023-07-20T13:04:56;92170.09;;;33.01;26.99
53041;BME280;39326;42.650;23.248;2023-07-20T13:07:36;92173.75;;;32.83;26.94